sensor_id;sensor_type;location;lat;lon;timestamp;P1;durP1;ratioP1;P2;durP2;ratioP2
11018;SDS011;5563;52.296;6.806;2023-05-07T00:01:27;19.98;;;18.23;;
11018;SDS011;5563;52.296;6.806;2023-05-07T00:03:57;19.10;;;17.40;;
11018;SDS011;5563;52.296;6.806;2023-05-07T00:06:32;19.60;;;17.92;;
11018;SDS011;5563;52.296;6.806;2023-05-07T00:08:59;18.23;;;16.65;;
11018;SDS011;5563;52.296;6.806;2023-05-07T00:11:36;19.52;;;17.73;;
11018;SDS011;5563;52.296;6.806;2023-05-07T00:14:03;19.80;;;18.08;;
11018;SDS011;5563;52.296;6.806;2023-05-07T00:16:37;17.73;;;16.02;;
11018;SDS011;5563;52.296;6.806;2023-05-07T00:19:05;18.70;;;17.00;;
11018;SDS011;5563;52.296;6.806;2023-05-07T00:21:39;17.92;;;16.30;;
11018;SDS011;5563;52.296;6.806;2023-05-07T00:24:17;17.90;;;16.40;;
11018;SDS011;5563;52.296;6.806;2023-05-07T00:26:45;17.30;;;15.80;;
11018;SDS011;5563;52.296;6.806;2023-05-07T00:29:20;18.65;;;17.05;;
11018;SDS011;5563;52.296;6.806;2023-05-07T00:31:48;18.83;;;17.17;;
11018;SDS011;5563;52.296;6.806;2023-05-07T00:34:28;18.50;;;16.80;;
11018;SDS011;5563;52.296;6.806;2023-05-07T00:36:55;18.63;;;17.02;;
11018;SDS011;5563;52.296;6.806;2023-05-07T00:39:35;19.05;;;17.48;;
11018;SDS011;5563;52.296;6.806;2023-05-07T00:42:02;19.85;;;18.05;;
11018;SDS011;5563;52.296;6.806;2023-05-07T00:44:37;20.20;;;18.50;;
11018;SDS011;5563;52.296;6.806;2023-05-07T00:47:04;20.20;;;18.40;;
11018;SDS011;5563;52.296;6.806;2023-05-07T00:49:39;19.88;;;18.13;;
11018;SDS011;5563;52.296;6.806;2023-05-07T00:52:11;20.05;;;18.23;;
11018;SDS011;5563;52.296;6.806;2023-05-07T00:54:49;20.48;;;18.70;;
11018;SDS011;5563;52.296;6.806;2023-05-07T00:57:16;20.75;;;18.98;;
11018;SDS011;5563;52.296;6.806;2023-05-07T00:59:50;21.13;;;19.27;;
11018;SDS011;5563;52.296;6.806;2023-05-07T01:02:33;21.95;;;20.08;;
11018;SDS011;5563;52.296;6.806;2023-05-07T01:05:07;21.55;;;19.67;;
11018;SDS011;5563;52.296;6.806;2023-05-07T01:07:46;21.90;;;19.90;;
11018;SDS011;5563;52.296;6.806;2023-05-07T01:10:22;23.42;;;21.20;;
11018;SDS011;5563;52.296;6.806;2023-05-07T01:12:57;21.30;;;19.50;;
11018;SDS011;5563;52.296;6.806;2023-05-07T01:15:33;22.02;;;20.02;;
11018;SDS011;5563;52.296;6.806;2023-05-07T01:18:10;22.23;;;20.15;;
11018;SDS011;5563;52.296;6.806;2023-05-07T01:20:40;21.58;;;19.58;;
11018;SDS011;5563;52.296;6.806;2023-05-07T01:23:16;21.38;;;19.33;;
11018;SDS011;5563;52.296;6.806;2023-05-07T01:25:54;21.50;;;19.42;;
11018;SDS011;5563;52.296;6.806;2023-05-07T01:28:30;20.45;;;18.40;;
11018;SDS011;5563;52.296;6.806;2023-05-07T01:31:01;20.15;;;18.05;;
11018;SDS011;5563;52.296;6.806;2023-05-07T01:33:37;19.13;;;17.33;;
11018;SDS011;5563;52.296;6.806;2023-05-07T01:36:13;19.52;;;17.52;;
11018;SDS011;5563;52.296;6.806;2023-05-07T01:38:51;19.40;;;17.40;;
11018;SDS011;5563;52.296;6.806;2023-05-07T01:41:25;19.73;;;17.42;;
11018;SDS011;5563;52.296;6.806;2023-05-07T01:44:03;19.73;;;17.73;;
11018;SDS011;5563;52.296;6.806;2023-05-07T01:46:39;19.83;;;17.83;;
11018;SDS011;5563;52.296;6.806;2023-05-07T01:49:07;19.67;;;17.70;;
11018;SDS011;5563;52.296;6.806;2023-05-07T01:51:44;19.30;;;17.40;;
11018;SDS011;5563;52.296;6.806;2023-05-07T01:54:25;20.02;;;18.02;;
11018;SDS011;5563;52.296;6.806;2023-05-07T01:56:58;19.80;;;17.80;;
11018;SDS011;5563;52.296;6.806;2023-05-07T01:59:33;20.25;;;18.05;;
11018;SDS011;5563;52.296;6.806;2023-05-07T02:02:10;19.33;;;16.80;;
11018;SDS011;5563;52.296;6.806;2023-05-07T02:04:37;21.15;;;19.05;;
11018;SDS011;5563;52.296;6.806;2023-05-07T02:07:11;21.05;;;19.00;;
11018;SDS011;5563;52.296;6.806;2023-05-07T02:09:40;19.60;;;17.52;;
11018;SDS011;5563;52.296;6.806;2023-05-07T02:12:17;20.20;;;18.17;;
11018;SDS011;5563;52.296;6.806;2023-05-07T02:14:44;22.27;;;19.25;;
11018;SDS011;5563;52.296;6.806;2023-05-07T02:17:20;23.27;;;20.55;;
11018;SDS011;5563;52.296;6.806;2023-05-07T02:19:50;22.77;;;20.35;;
11018;SDS011;5563;52.296;6.806;2023-05-07T02:22:24;22.70;;;20.50;;
11018;SDS011;5563;52.296;6.806;2023-05-07T02:24:58;23.30;;;20.90;;
11018;SDS011;5563;52.296;6.806;2023-05-07T02:27:25;25.27;;;22.70;;
11018;SDS011;5563;52.296;6.806;2023-05-07T02:29:59;25.63;;;22.23;;
11018;SDS011;5563;52.296;6.806;2023-05-07T02:32:28;25.50;;;22.73;;
11018;SDS011;5563;52.296;6.806;2023-05-07T02:35:11;26.15;;;23.35;;
11018;SDS011;5563;52.296;6.806;2023-05-07T02:37:55;26.10;;;23.38;;
11018;SDS011;5563;52.296;6.806;2023-05-07T02:40:29;25.52;;;22.80;;
11018;SDS011;5563;52.296;6.806;2023-05-07T02:43:00;31.02;;;24.63;;
11018;SDS011;5563;52.296;6.806;2023-05-07T02:45:34;26.67;;;23.77;;
11018;SDS011;5563;52.296;6.806;2023-05-07T02:48:04;27.92;;;23.75;;
11018;SDS011;5563;52.296;6.806;2023-05-07T02:50:47;26.75;;;24.00;;
11018;SDS011;5563;52.296;6.806;2023-05-07T02:53:14;29.27;;;24.83;;
11018;SDS011;5563;52.296;6.806;2023-05-07T02:55:49;28.02;;;25.05;;
11018;SDS011;5563;52.296;6.806;2023-05-07T02:58:25;28.90;;;25.80;;
11018;SDS011;5563;52.296;6.806;2023-05-07T03:01:02;27.77;;;24.10;;
11018;SDS011;5563;52.296;6.806;2023-05-07T03:03:33;27.80;;;24.98;;
11018;SDS011;5563;52.296;6.806;2023-05-07T03:06:07;27.48;;;24.35;;
11018;SDS011;5563;52.296;6.806;2023-05-07T03:08:43;28.95;;;25.85;;
11018;SDS011;5563;52.296;6.806;2023-05-07T03:11:13;28.65;;;25.65;;
11018;SDS011;5563;52.296;6.806;2023-05-07T03:13:48;27.52;;;24.52;;
11018;SDS011;5563;52.296;6.806;2023-05-07T03:16:16;27.83;;;24.77;;
11018;SDS011;5563;52.296;6.806;2023-05-07T03:18:46;26.92;;;24.02;;
11018;SDS011;5563;52.296;6.806;2023-05-07T03:21:20;28.00;;;24.98;;
11018;SDS011;5563;52.296;6.806;2023-05-07T03:23:54;29.88;;;25.58;;
11018;SDS011;5563;52.296;6.806;2023-05-07T03:26:21;28.10;;;24.92;;
11018;SDS011;5563;52.296;6.806;2023-05-07T03:28:55;27.92;;;24.98;;
11018;SDS011;5563;52.296;6.806;2023-05-07T03:31:29;29.67;;;26.48;;
11018;SDS011;5563;52.296;6.806;2023-05-07T03:34:03;28.95;;;24.92;;
11018;SDS011;5563;52.296;6.806;2023-05-07T03:36:38;27.25;;;24.15;;
11018;SDS011;5563;52.296;6.806;2023-05-07T03:39:12;28.40;;;25.35;;
11018;SDS011;5563;52.296;6.806;2023-05-07T03:41:53;27.33;;;24.35;;
11018;SDS011;5563;52.296;6.806;2023-05-07T03:44:23;29.17;;;24.98;;
11018;SDS011;5563;52.296;6.806;2023-05-07T03:46:57;28.48;;;25.40;;
11018;SDS011;5563;52.296;6.806;2023-05-07T03:49:24;28.38;;;25.42;;
11018;SDS011;5563;52.296;6.806;2023-05-07T03:52:00;29.00;;;25.98;;
11018;SDS011;5563;52.296;6.806;2023-05-07T03:54:30;28.20;;;25.02;;
11018;SDS011;5563;52.296;6.806;2023-05-07T03:57:10;29.67;;;26.48;;
11018;SDS011;5563;52.296;6.806;2023-05-07T03:59:37;29.10;;;25.02;;
11018;SDS011;5563;52.296;6.806;2023-05-07T04:02:11;30.58;;;26.67;;
11018;SDS011;5563;52.296;6.806;2023-05-07T04:04:38;30.67;;;25.58;;
11018;SDS011;5563;52.296;6.806;2023-05-07T04:07:13;29.80;;;25.27;;
11018;SDS011;5563;52.296;6.806;2023-05-07T04:09:53;31.98;;;25.98;;
11018;SDS011;5563;52.296;6.806;2023-05-07T04:12:30;32.13;;;27.20;;
11018;SDS011;5563;52.296;6.806;2023-05-07T04:15:01;30.25;;;26.85;;
11018;SDS011;5563;52.296;6.806;2023-05-07T04:17:35;31.15;;;26.13;;
11018;SDS011;5563;52.296;6.806;2023-05-07T04:20:16;30.80;;;27.23;;
11018;SDS011;5563;52.296;6.806;2023-05-07T04:22:56;31.65;;;27.95;;
11018;SDS011;5563;52.296;6.806;2023-05-07T04:25:30;33.03;;;27.58;;
11018;SDS011;5563;52.296;6.806;2023-05-07T04:27:57;32.88;;;28.08;;
11018;SDS011;5563;52.296;6.806;2023-05-07T04:30:32;30.73;;;27.38;;
11018;SDS011;5563;52.296;6.806;2023-05-07T04:32:59;32.90;;;26.58;;
11018;SDS011;5563;52.296;6.806;2023-05-07T04:35:45;31.52;;;27.40;;
11018;SDS011;5563;52.296;6.806;2023-05-07T04:38:26;32.75;;;28.45;;
11018;SDS011;5563;52.296;6.806;2023-05-07T04:41:04;31.20;;;26.88;;
11018;SDS011;5563;52.296;6.806;2023-05-07T04:43:35;34.58;;;28.48;;
11018;SDS011;5563;52.296;6.806;2023-05-07T04:46:09;32.33;;;27.13;;
11018;SDS011;5563;52.296;6.806;2023-05-07T04:48:41;33.65;;;26.42;;
11018;SDS011;5563;52.296;6.806;2023-05-07T04:51:34;32.67;;;27.83;;
11018;SDS011;5563;52.296;6.806;2023-05-07T04:54:16;37.53;;;28.50;;
11018;SDS011;5563;52.296;6.806;2023-05-07T04:56:52;35.08;;;28.75;;
11018;SDS011;5563;52.296;6.806;2023-05-07T04:59:19;35.03;;;28.60;;
11018;SDS011;5563;52.296;6.806;2023-05-07T05:02:00;36.45;;;30.63;;
11018;SDS011;5563;52.296;6.806;2023-05-07T05:04:31;32.47;;;28.35;;
11018;SDS011;5563;52.296;6.806;2023-05-07T05:07:05;34.90;;;28.70;;
11018;SDS011;5563;52.296;6.806;2023-05-07T05:09:32;36.28;;;29.15;;
11018;SDS011;5563;52.296;6.806;2023-05-07T05:12:06;38.78;;;30.75;;
11018;SDS011;5563;52.296;6.806;2023-05-07T05:14:42;33.55;;;28.98;;
11018;SDS011;5563;52.296;6.806;2023-05-07T05:17:19;32.58;;;28.85;;
11018;SDS011;5563;52.296;6.806;2023-05-07T05:19:55;38.05;;;30.83;;
11018;SDS011;5563;52.296;6.806;2023-05-07T05:22:26;34.47;;;29.75;;
11018;SDS011;5563;52.296;6.806;2023-05-07T05:25:02;37.78;;;29.80;;
11018;SDS011;5563;52.296;6.806;2023-05-07T05:27:32;41.75;;;29.98;;
11018;SDS011;5563;52.296;6.806;2023-05-07T05:30:07;38.88;;;30.10;;
11018;SDS011;5563;52.296;6.806;2023-05-07T05:32:37;37.10;;;30.70;;
11018;SDS011;5563;52.296;6.806;2023-05-07T05:35:14;39.20;;;30.42;;
11018;SDS011;5563;52.296;6.806;2023-05-07T05:37:48;35.90;;;31.45;;
11018;SDS011;5563;52.296;6.806;2023-05-07T05:40:23;38.70;;;31.27;;
11018;SDS011;5563;52.296;6.806;2023-05-07T05:43:00;41.03;;;31.70;;
11018;SDS011;5563;52.296;6.806;2023-05-07T05:45:34;37.03;;;30.48;;
11018;SDS011;5563;52.296;6.806;2023-05-07T05:48:05;40.42;;;33.92;;
11018;SDS011;5563;52.296;6.806;2023-05-07T05:50:41;38.35;;;30.92;;
11018;SDS011;5563;52.296;6.806;2023-05-07T05:53:20;35.47;;;30.63;;
11018;SDS011;5563;52.296;6.806;2023-05-07T05:55:57;39.38;;;31.85;;
11018;SDS011;5563;52.296;6.806;2023-05-07T05:58:24;38.42;;;31.33;;
11018;SDS011;5563;52.296;6.806;2023-05-07T06:00:58;39.05;;;30.85;;
11018;SDS011;5563;52.296;6.806;2023-05-07T06:03:35;37.10;;;30.92;;
11018;SDS011;5563;52.296;6.806;2023-05-07T06:06:03;35.22;;;30.73;;
11018;SDS011;5563;52.296;6.806;2023-05-07T06:08:40;41.33;;;33.20;;
11018;SDS011;5563;52.296;6.806;2023-05-07T06:11:08;39.47;;;32.08;;
11018;SDS011;5563;52.296;6.806;2023-05-07T06:13:42;36.03;;;29.55;;
11018;SDS011;5563;52.296;6.806;2023-05-07T06:16:09;39.22;;;32.35;;
11018;SDS011;5563;52.296;6.806;2023-05-07T06:18:43;37.88;;;31.27;;
11018;SDS011;5563;52.296;6.806;2023-05-07T06:21:15;36.22;;;30.83;;
11018;SDS011;5563;52.296;6.806;2023-05-07T06:23:53;35.47;;;30.88;;
11018;SDS011;5563;52.296;6.806;2023-05-07T06:26:26;37.22;;;31.77;;
11018;SDS011;5563;52.296;6.806;2023-05-07T06:29:08;36.47;;;30.15;;
11018;SDS011;5563;52.296;6.806;2023-05-07T06:31:38;33.15;;;28.23;;
11018;SDS011;5563;52.296;6.806;2023-05-07T06:34:12;37.65;;;30.33;;
11018;SDS011;5563;52.296;6.806;2023-05-07T06:36:41;34.42;;;30.15;;
11018;SDS011;5563;52.296;6.806;2023-05-07T06:39:26;38.03;;;29.90;;
11018;SDS011;5563;52.296;6.806;2023-05-07T06:41:56;42.92;;;33.88;;
11018;SDS011;5563;52.296;6.806;2023-05-07T06:44:33;37.78;;;31.83;;
11018;SDS011;5563;52.296;6.806;2023-05-07T06:47:07;33.15;;;28.88;;
11018;SDS011;5563;52.296;6.806;2023-05-07T06:49:42;36.38;;;30.25;;
11018;SDS011;5563;52.296;6.806;2023-05-07T06:52:09;32.58;;;28.73;;
11018;SDS011;5563;52.296;6.806;2023-05-07T06:54:46;33.78;;;28.20;;
11018;SDS011;5563;52.296;6.806;2023-05-07T06:57:13;33.78;;;28.20;;
11018;SDS011;5563;52.296;6.806;2023-05-07T06:59:50;31.90;;;28.38;;
11018;SDS011;5563;52.296;6.806;2023-05-07T07:02:24;33.70;;;29.42;;
11018;SDS011;5563;52.296;6.806;2023-05-07T07:04:52;34.55;;;28.45;;
11018;SDS011;5563;52.296;6.806;2023-05-07T07:07:26;36.42;;;28.48;;
11018;SDS011;5563;52.296;6.806;2023-05-07T07:10:00;35.30;;;28.70;;
11018;SDS011;5563;52.296;6.806;2023-05-07T07:12:39;35.65;;;28.63;;
11018;SDS011;5563;52.296;6.806;2023-05-07T07:15:10;33.40;;;27.27;;
11018;SDS011;5563;52.296;6.806;2023-05-07T07:17:48;31.73;;;27.60;;
11018;SDS011;5563;52.296;6.806;2023-05-07T07:20:15;33.65;;;29.38;;
11018;SDS011;5563;52.296;6.806;2023-05-07T07:22:49;36.28;;;30.85;;
11018;SDS011;5563;52.296;6.806;2023-05-07T07:25:23;32.78;;;27.90;;
11018;SDS011;5563;52.296;6.806;2023-05-07T07:27:51;30.58;;;27.23;;
11018;SDS011;5563;52.296;6.806;2023-05-07T07:30:26;29.35;;;26.25;;
11018;SDS011;5563;52.296;6.806;2023-05-07T07:32:56;29.60;;;26.30;;
11018;SDS011;5563;52.296;6.806;2023-05-07T07:35:35;31.13;;;27.65;;
11018;SDS011;5563;52.296;6.806;2023-05-07T07:38:15;30.60;;;26.35;;
11018;SDS011;5563;52.296;6.806;2023-05-07T07:40:53;29.63;;;26.00;;
11018;SDS011;5563;52.296;6.806;2023-05-07T07:43:21;30.67;;;26.95;;
11018;SDS011;5563;52.296;6.806;2023-05-07T07:45:57;31.27;;;27.88;;
11018;SDS011;5563;52.296;6.806;2023-05-07T07:48:24;30.65;;;27.35;;
11018;SDS011;5563;52.296;6.806;2023-05-07T07:51:03;29.73;;;26.45;;
11018;SDS011;5563;52.296;6.806;2023-05-07T07:53:31;29.85;;;26.65;;
11018;SDS011;5563;52.296;6.806;2023-05-07T07:55:58;27.77;;;24.80;;
11018;SDS011;5563;52.296;6.806;2023-05-07T07:58:32;28.83;;;25.83;;
11018;SDS011;5563;52.296;6.806;2023-05-07T08:01:09;30.25;;;27.05;;
11018;SDS011;5563;52.296;6.806;2023-05-07T08:03:39;28.77;;;25.75;;
11018;SDS011;5563;52.296;6.806;2023-05-07T08:06:13;27.92;;;24.85;;
11018;SDS011;5563;52.296;6.806;2023-05-07T08:08:47;33.08;;;26.40;;
11018;SDS011;5563;52.296;6.806;2023-05-07T08:11:21;29.95;;;26.73;;
11018;SDS011;5563;52.296;6.806;2023-05-07T08:13:48;27.85;;;25.05;;
11018;SDS011;5563;52.296;6.806;2023-05-07T08:16:24;29.05;;;26.00;;
11018;SDS011;5563;52.296;6.806;2023-05-07T08:18:51;30.35;;;27.20;;
11018;SDS011;5563;52.296;6.806;2023-05-07T08:21:25;30.23;;;27.13;;
11018;SDS011;5563;52.296;6.806;2023-05-07T08:24:02;29.27;;;25.90;;
11018;SDS011;5563;52.296;6.806;2023-05-07T08:26:29;30.17;;;26.55;;
11018;SDS011;5563;52.296;6.806;2023-05-07T08:29:03;33.80;;;30.10;;
11018;SDS011;5563;52.296;6.806;2023-05-07T08:31:30;31.40;;;27.05;;
11018;SDS011;5563;52.296;6.806;2023-05-07T08:34:08;30.40;;;27.13;;
11018;SDS011;5563;52.296;6.806;2023-05-07T08:36:37;29.08;;;26.02;;
11018;SDS011;5563;52.296;6.806;2023-05-07T08:39:26;29.23;;;25.95;;
11018;SDS011;5563;52.296;6.806;2023-05-07T08:41:56;30.30;;;26.88;;
11018;SDS011;5563;52.296;6.806;2023-05-07T08:44:37;29.58;;;26.33;;
11018;SDS011;5563;52.296;6.806;2023-05-07T08:47:11;29.15;;;26.20;;
11018;SDS011;5563;52.296;6.806;2023-05-07T08:49:38;28.98;;;25.92;;
11018;SDS011;5563;52.296;6.806;2023-05-07T08:52:15;28.02;;;25.15;;
11018;SDS011;5563;52.296;6.806;2023-05-07T08:54:51;28.60;;;25.50;;
11018;SDS011;5563;52.296;6.806;2023-05-07T08:57:18;27.88;;;25.00;;
11018;SDS011;5563;52.296;6.806;2023-05-07T08:59:56;26.80;;;24.02;;
11018;SDS011;5563;52.296;6.806;2023-05-07T09:02:29;26.40;;;23.60;;
11018;SDS011;5563;52.296;6.806;2023-05-07T09:05:05;26.13;;;23.42;;
11018;SDS011;5563;52.296;6.806;2023-05-07T09:07:39;24.52;;;22.13;;
11018;SDS011;5563;52.296;6.806;2023-05-07T09:10:06;26.02;;;23.38;;
11018;SDS011;5563;52.296;6.806;2023-05-07T09:12:41;37.08;;;32.65;;
11018;SDS011;5563;52.296;6.806;2023-05-07T09:15:11;26.85;;;23.85;;
11018;SDS011;5563;52.296;6.806;2023-05-07T09:17:47;24.85;;;22.27;;
11018;SDS011;5563;52.296;6.806;2023-05-07T09:20:15;25.30;;;22.80;;
11018;SDS011;5563;52.296;6.806;2023-05-07T09:22:51;25.95;;;23.23;;
11018;SDS011;5563;52.296;6.806;2023-05-07T09:25:22;25.38;;;22.67;;
11018;SDS011;5563;52.296;6.806;2023-05-07T09:28:03;23.65;;;21.27;;
11018;SDS011;5563;52.296;6.806;2023-05-07T09:30:31;24.13;;;21.83;;
11018;SDS011;5563;52.296;6.806;2023-05-07T09:33:06;24.52;;;21.95;;
11018;SDS011;5563;52.296;6.806;2023-05-07T09:35:42;23.63;;;21.33;;
11018;SDS011;5563;52.296;6.806;2023-05-07T09:38:09;22.42;;;20.33;;
11018;SDS011;5563;52.296;6.806;2023-05-07T09:41:01;23.08;;;20.75;;
11018;SDS011;5563;52.296;6.806;2023-05-07T09:43:36;24.67;;;22.13;;
11018;SDS011;5563;52.296;6.806;2023-05-07T09:46:13;28.13;;;25.30;;
11018;SDS011;5563;52.296;6.806;2023-05-07T09:48:43;23.63;;;21.23;;
11018;SDS011;5563;52.296;6.806;2023-05-07T09:53:44;23.23;;;20.95;;
11018;SDS011;5563;52.296;6.806;2023-05-07T09:56:21;21.95;;;19.85;;
11018;SDS011;5563;52.296;6.806;2023-05-07T09:58:49;24.00;;;21.70;;
11018;SDS011;5563;52.296;6.806;2023-05-07T10:01:29;22.45;;;20.25;;
11018;SDS011;5563;52.296;6.806;2023-05-07T10:03:57;22.85;;;20.52;;
11018;SDS011;5563;52.296;6.806;2023-05-07T10:06:32;23.00;;;20.65;;
11018;SDS011;5563;52.296;6.806;2023-05-07T10:08:59;22.50;;;20.27;;
11018;SDS011;5563;52.296;6.806;2023-05-07T10:11:33;22.48;;;20.17;;
11018;SDS011;5563;52.296;6.806;2023-05-07T10:14:01;23.35;;;21.00;;
11018;SDS011;5563;52.296;6.806;2023-05-07T10:16:36;21.92;;;19.70;;
11018;SDS011;5563;52.296;6.806;2023-05-07T10:19:03;22.05;;;19.88;;
11018;SDS011;5563;52.296;6.806;2023-05-07T10:21:44;21.42;;;19.42;;
11018;SDS011;5563;52.296;6.806;2023-05-07T10:24:31;21.33;;;19.33;;
11018;SDS011;5563;52.296;6.806;2023-05-07T10:27:08;21.30;;;19.20;;
11018;SDS011;5563;52.296;6.806;2023-05-07T10:33:05;21.08;;;19.02;;
11018;SDS011;5563;52.296;6.806;2023-05-07T10:35:38;20.55;;;18.55;;
11018;SDS011;5563;52.296;6.806;2023-05-07T10:38:21;21.40;;;19.33;;
11018;SDS011;5563;52.296;6.806;2023-05-07T10:41:02;20.48;;;18.58;;
11018;SDS011;5563;52.296;6.806;2023-05-07T10:43:39;21.05;;;19.02;;
11018;SDS011;5563;52.296;6.806;2023-05-07T10:46:24;21.08;;;19.00;;
11018;SDS011;5563;52.296;6.806;2023-05-07T10:51:33;20.98;;;18.98;;
11018;SDS011;5563;52.296;6.806;2023-05-07T10:56:37;20.00;;;18.10;;
11018;SDS011;5563;52.296;6.806;2023-05-07T11:01:50;19.13;;;17.13;;
11018;SDS011;5563;52.296;6.806;2023-05-07T11:04:28;18.98;;;17.08;;
11018;SDS011;5563;52.296;6.806;2023-05-07T11:15:07;18.95;;;17.05;;
11018;SDS011;5563;52.296;6.806;2023-05-07T11:17:55;17.08;;;15.48;;
11018;SDS011;5563;52.296;6.806;2023-05-07T11:26:10;19.33;;;17.50;;
11018;SDS011;5563;52.296;6.806;2023-05-07T11:28:44;18.65;;;16.80;;
11018;SDS011;5563;52.296;6.806;2023-05-07T11:31:11;17.70;;;15.93;;
11018;SDS011;5563;52.296;6.806;2023-05-07T11:33:44;18.35;;;16.50;;
11018;SDS011;5563;52.296;6.806;2023-05-07T11:36:11;16.45;;;14.95;;
11018;SDS011;5563;52.296;6.806;2023-05-07T11:38:51;16.70;;;15.20;;
11018;SDS011;5563;52.296;6.806;2023-05-07T11:41:18;15.82;;;14.20;;
11018;SDS011;5563;52.296;6.806;2023-05-07T11:43:54;17.98;;;16.27;;
11018;SDS011;5563;52.296;6.806;2023-05-07T11:46:24;18.42;;;16.50;;
11018;SDS011;5563;52.296;6.806;2023-05-07T11:48:51;16.77;;;15.13;;
11018;SDS011;5563;52.296;6.806;2023-05-07T11:51:25;17.80;;;16.08;;
11018;SDS011;5563;52.296;6.806;2023-05-07T11:53:55;16.70;;;15.18;;
11018;SDS011;5563;52.296;6.806;2023-05-07T11:56:28;17.50;;;15.82;;
11018;SDS011;5563;52.296;6.806;2023-05-07T11:58:55;17.83;;;15.65;;
11018;SDS011;5563;52.296;6.806;2023-05-07T12:01:28;18.38;;;16.58;;
11018;SDS011;5563;52.296;6.806;2023-05-07T12:03:55;16.80;;;15.10;;
11018;SDS011;5563;52.296;6.806;2023-05-07T12:06:28;17.75;;;16.02;;
11018;SDS011;5563;52.296;6.806;2023-05-07T12:08:55;15.77;;;14.30;;
11018;SDS011;5563;52.296;6.806;2023-05-07T12:11:28;17.65;;;15.95;;
11018;SDS011;5563;52.296;6.806;2023-05-07T12:13:55;17.30;;;15.60;;
11018;SDS011;5563;52.296;6.806;2023-05-07T12:16:33;16.70;;;15.07;;
11018;SDS011;5563;52.296;6.806;2023-05-07T12:19:01;17.40;;;15.65;;
11018;SDS011;5563;52.296;6.806;2023-05-07T12:21:35;16.00;;;14.40;;
11018;SDS011;5563;52.296;6.806;2023-05-07T12:24:08;18.02;;;16.33;;
11018;SDS011;5563;52.296;6.806;2023-05-07T12:26:43;17.20;;;15.55;;
11018;SDS011;5563;52.296;6.806;2023-05-07T12:29:16;17.05;;;15.38;;
11018;SDS011;5563;52.296;6.806;2023-05-07T12:31:49;15.80;;;14.35;;
11018;SDS011;5563;52.296;6.806;2023-05-07T12:34:23;17.42;;;15.73;;
11018;SDS011;5563;52.296;6.806;2023-05-07T12:36:50;18.13;;;16.42;;
11018;SDS011;5563;52.296;6.806;2023-05-07T12:39:23;16.63;;;15.13;;
11018;SDS011;5563;52.296;6.806;2023-05-07T12:41:57;17.42;;;15.90;;
11018;SDS011;5563;52.296;6.806;2023-05-07T12:44:31;16.80;;;15.20;;
11018;SDS011;5563;52.296;6.806;2023-05-07T12:47:02;15.07;;;13.57;;
11018;SDS011;5563;52.296;6.806;2023-05-07T12:49:35;15.07;;;13.63;;
11018;SDS011;5563;52.296;6.806;2023-05-07T12:52:05;16.15;;;14.65;;
11018;SDS011;5563;52.296;6.806;2023-05-07T12:54:39;12.93;;;11.63;;
11018;SDS011;5563;52.296;6.806;2023-05-07T12:57:07;13.45;;;12.10;;
11018;SDS011;5563;52.296;6.806;2023-05-07T12:59:41;14.27;;;12.98;;
11018;SDS011;5563;52.296;6.806;2023-05-07T13:02:15;13.77;;;12.38;;
11018;SDS011;5563;52.296;6.806;2023-05-07T13:04:42;11.85;;;10.68;;
11018;SDS011;5563;52.296;6.806;2023-05-07T13:07:16;11.38;;;10.27;;
11018;SDS011;5563;52.296;6.806;2023-05-07T13:09:43;10.80;;;9.80;;
11018;SDS011;5563;52.296;6.806;2023-05-07T13:12:17;11.32;;;10.23;;
11018;SDS011;5563;52.296;6.806;2023-05-07T13:14:44;12.98;;;11.77;;
11018;SDS011;5563;52.296;6.806;2023-05-07T13:17:17;11.18;;;10.13;;
11018;SDS011;5563;52.296;6.806;2023-05-07T13:19:45;12.35;;;11.20;;
11018;SDS011;5563;52.296;6.806;2023-05-07T13:22:18;11.30;;;10.30;;
11018;SDS011;5563;52.296;6.806;2023-05-07T13:24:45;13.15;;;11.80;;
11018;SDS011;5563;52.296;6.806;2023-05-07T13:27:18;11.93;;;10.73;;
11018;SDS011;5563;52.296;6.806;2023-05-07T13:29:46;11.75;;;10.65;;
11018;SDS011;5563;52.296;6.806;2023-05-07T13:32:12;11.70;;;10.50;;
11018;SDS011;5563;52.296;6.806;2023-05-07T13:34:46;11.60;;;10.40;;
11018;SDS011;5563;52.296;6.806;2023-05-07T13:37:19;12.70;;;11.48;;
11018;SDS011;5563;52.296;6.806;2023-05-07T13:40:00;11.45;;;10.35;;
11018;SDS011;5563;52.296;6.806;2023-05-07T13:42:26;11.90;;;10.80;;
11018;SDS011;5563;52.296;6.806;2023-05-07T13:45:00;11.38;;;10.27;;
11018;SDS011;5563;52.296;6.806;2023-05-07T13:47:29;12.10;;;10.93;;
11018;SDS011;5563;52.296;6.806;2023-05-07T13:50:05;11.85;;;10.75;;
11018;SDS011;5563;52.296;6.806;2023-05-07T13:52:33;11.80;;;10.65;;
11018;SDS011;5563;52.296;6.806;2023-05-07T13:55:11;13.60;;;12.40;;
11018;SDS011;5563;52.296;6.806;2023-05-07T13:57:39;12.07;;;10.88;;
11018;SDS011;5563;52.296;6.806;2023-05-07T14:00:13;10.57;;;9.57;;
11018;SDS011;5563;52.296;6.806;2023-05-07T14:02:40;13.48;;;11.48;;
11018;SDS011;5563;52.296;6.806;2023-05-07T14:05:14;13.52;;;12.32;;
11018;SDS011;5563;52.296;6.806;2023-05-07T14:07:41;14.38;;;13.07;;
11018;SDS011;5563;52.296;6.806;2023-05-07T14:10:15;13.45;;;12.25;;
11018;SDS011;5563;52.296;6.806;2023-05-07T14:12:42;12.15;;;11.10;;
11018;SDS011;5563;52.296;6.806;2023-05-07T14:15:10;12.32;;;11.23;;
11018;SDS011;5563;52.296;6.806;2023-05-07T14:17:43;11.90;;;10.80;;
11018;SDS011;5563;52.296;6.806;2023-05-07T14:20:11;11.57;;;10.57;;
11018;SDS011;5563;52.296;6.806;2023-05-07T14:22:45;13.20;;;12.10;;
11018;SDS011;5563;52.296;6.806;2023-05-07T14:25:12;13.32;;;12.10;;
11018;SDS011;5563;52.296;6.806;2023-05-07T14:27:46;13.73;;;12.52;;
11018;SDS011;5563;52.296;6.806;2023-05-07T14:30:13;14.43;;;13.07;;
11018;SDS011;5563;52.296;6.806;2023-05-07T14:32:49;12.63;;;11.50;;
11018;SDS011;5563;52.296;6.806;2023-05-07T14:35:17;13.73;;;12.43;;
11018;SDS011;5563;52.296;6.806;2023-05-07T14:37:50;12.82;;;11.63;;
11018;SDS011;5563;52.296;6.806;2023-05-07T14:40:24;13.25;;;11.90;;
11018;SDS011;5563;52.296;6.806;2023-05-07T14:42:57;12.82;;;11.60;;
11018;SDS011;5563;52.296;6.806;2023-05-07T14:45:31;11.93;;;10.82;;
11018;SDS011;5563;52.296;6.806;2023-05-07T14:47:58;11.77;;;10.77;;
11018;SDS011;5563;52.296;6.806;2023-05-07T14:50:31;11.73;;;10.70;;
11018;SDS011;5563;52.296;6.806;2023-05-07T14:52:58;13.05;;;11.73;;
11018;SDS011;5563;52.296;6.806;2023-05-07T14:55:32;11.32;;;10.32;;
11018;SDS011;5563;52.296;6.806;2023-05-07T14:58:00;12.65;;;11.45;;
11018;SDS011;5563;52.296;6.806;2023-05-07T15:00:34;11.43;;;10.43;;
11018;SDS011;5563;52.296;6.806;2023-05-07T15:03:06;11.15;;;10.07;;
11018;SDS011;5563;52.296;6.806;2023-05-07T15:05:40;12.32;;;11.05;;
11018;SDS011;5563;52.296;6.806;2023-05-07T15:08:08;10.85;;;9.85;;
11018;SDS011;5563;52.296;6.806;2023-05-07T15:10:41;10.32;;;9.43;;
11018;SDS011;5563;52.296;6.806;2023-05-07T15:13:11;10.23;;;9.32;;
11018;SDS011;5563;52.296;6.806;2023-05-07T15:15:46;11.82;;;9.45;;
11018;SDS011;5563;52.296;6.806;2023-05-07T15:18:19;9.88;;;8.98;;
11018;SDS011;5563;52.296;6.806;2023-05-07T15:20:53;11.10;;;10.00;;
11018;SDS011;5563;52.296;6.806;2023-05-07T15:23:28;10.95;;;9.95;;
11018;SDS011;5563;52.296;6.806;2023-05-07T15:26:03;9.88;;;8.98;;
11018;SDS011;5563;52.296;6.806;2023-05-07T15:28:38;9.43;;;8.63;;
11018;SDS011;5563;52.296;6.806;2023-05-07T15:31:12;11.43;;;10.38;;
11018;SDS011;5563;52.296;6.806;2023-05-07T15:33:39;10.73;;;9.75;;
11018;SDS011;5563;52.296;6.806;2023-05-07T15:36:07;11.38;;;10.38;;
11018;SDS011;5563;52.296;6.806;2023-05-07T15:38:47;12.23;;;10.73;;